createdAt,value
2018-01-19T00:01:36.897Z,21.63
2018-01-19T00:04:05.459Z,14.97
2018-01-19T00:06:33.863Z,16.93
2018-01-19T00:09:02.530Z,22.20
2018-01-19T00:11:31.002Z,18.67
2018-01-19T00:13:59.582Z,25.03
2018-01-19T00:16:27.964Z,24.90
2018-01-19T00:18:56.346Z,32.17
2018-01-19T00:21:24.723Z,38.07
2018-01-19T00:23:53.299Z,23.40
2018-01-19T00:26:21.784Z,35.27
2018-01-19T00:28:50.262Z,27.00
2018-01-19T00:31:18.658Z,22.70
2018-01-19T00:33:47.837Z,26.27
2018-01-19T00:36:17.043Z,22.97
2018-01-19T00:38:45.522Z,24.50
2018-01-19T00:41:13.945Z,24.67
2018-01-19T00:43:42.375Z,27.10
2018-01-19T00:46:11.319Z,21.67
2018-01-19T00:48:40.676Z,22.47
2018-01-19T00:51:09.155Z,24.30
2018-01-19T00:53:38.559Z,29.40
2018-01-19T00:56:08.566Z,21.93
2018-01-19T00:58:37.153Z,18.37
2018-01-19T01:01:05.633Z,27.23
2018-01-19T01:03:34.121Z,18.17
2018-01-19T01:06:02.594Z,20.30
2018-01-19T01:08:31.637Z,16.33
2018-01-19T01:11:04.202Z,17.50
2018-01-19T01:13:33.668Z,17.67
2018-01-19T01:16:02.017Z,15.33
2018-01-19T01:18:33.190Z,17.07
2018-01-19T01:21:01.673Z,14.27
2018-01-19T01:23:30.055Z,19.77
2018-01-19T01:25:58.530Z,17.33
2018-01-19T01:28:27.011Z,22.53
2018-01-19T01:30:55.652Z,19.37
2018-01-19T01:33:24.710Z,14.63
2018-01-19T01:35:59.314Z,17.67
2018-01-19T01:38:29.360Z,24.17
2018-01-19T01:40:57.815Z,20.13
2018-01-19T01:43:34.079Z,19.20
2018-01-19T01:46:02.454Z,21.00
2018-01-19T01:48:30.730Z,18.10
2018-01-19T01:50:59.952Z,18.50
2018-01-19T01:53:28.426Z,17.60
2018-01-19T01:55:56.891Z,12.73
2018-01-19T01:58:25.204Z,16.40
2018-01-19T02:00:54.152Z,20.00
2018-01-19T02:03:22.643Z,17.97
2018-01-19T02:05:50.928Z,19.23
2018-01-19T02:08:19.246Z,17.70
2018-01-19T02:10:50.744Z,14.37
2018-01-19T02:13:20.026Z,15.40
2018-01-19T02:15:49.240Z,16.30
2018-01-19T02:18:17.731Z,17.33
2018-01-19T02:20:46.204Z,16.43
2018-01-19T02:23:14.686Z,16.53
2018-01-19T02:25:43.181Z,18.97
2018-01-19T02:28:12.463Z,19.43
2018-01-19T02:30:40.976Z,18.93
2018-01-19T02:33:09.474Z,13.27
2018-01-19T02:35:39.567Z,24.43
2018-01-19T02:38:08.031Z,9.80
2018-01-19T02:40:36.506Z,16.33
2018-01-19T02:43:05.293Z,16.30
2018-01-19T02:45:33.778Z,19.33
2018-01-19T02:48:08.465Z,20.73
2018-01-19T02:50:37.707Z,19.77
2018-01-19T02:53:06.019Z,25.83
2018-01-19T02:55:34.456Z,17.97
2018-01-19T02:58:02.939Z,16.43
2018-01-19T03:00:43.501Z,15.63
2018-01-19T03:03:11.983Z,14.70
2018-01-19T03:05:40.273Z,25.37
2018-01-19T03:08:08.674Z,19.03
2018-01-19T03:10:39.072Z,15.07
2018-01-19T03:13:08.184Z,16.10
2018-01-19T03:15:36.643Z,15.67
2018-01-19T03:18:05.121Z,19.23
2018-01-19T03:20:41.388Z,18.33
2018-01-19T03:23:09.770Z,22.30
2018-01-19T03:25:38.245Z,25.23
2018-01-19T03:28:06.544Z,20.03
2018-01-19T03:30:35.004Z,23.83
2018-01-19T03:33:04.020Z,20.70
2018-01-19T03:35:33.195Z,23.63
2018-01-19T03:38:01.675Z,19.63
2018-01-19T03:40:30.077Z,20.07
2018-01-19T03:43:06.210Z,17.47
2018-01-19T03:45:35.200Z,18.43
2018-01-19T03:48:03.589Z,25.87
2018-01-19T03:50:31.893Z,20.13
2018-01-19T03:53:00.337Z,17.23
2018-01-19T03:55:28.817Z,24.30
2018-01-19T03:57:57.304Z,15.87
2018-01-19T04:00:25.697Z,17.20
2018-01-19T04:03:01.199Z,20.03
2018-01-19T04:05:30.356Z,20.53
2018-01-19T04:08:13.912Z,18.80
2018-01-19T04:10:42.961Z,23.87
2018-01-19T04:13:11.429Z,22.77
2018-01-19T04:15:44.825Z,18.23
2018-01-19T04:18:13.104Z,16.13
2018-01-19T04:20:43.328Z,19.87
2018-01-19T04:23:11.703Z,24.33
2018-01-19T04:25:39.990Z,20.97
2018-01-19T04:28:08.273Z,22.33
2018-01-19T04:30:38.677Z,23.17
2018-01-19T04:33:06.988Z,24.67
2018-01-19T04:35:35.434Z,18.40
2018-01-19T04:38:03.816Z,28.47
2018-01-19T04:40:32.156Z,23.57
2018-01-19T04:43:00.532Z,21.63
2018-01-19T04:45:29.768Z,20.27
2018-01-19T04:47:58.256Z,21.73
2018-01-19T04:50:26.818Z,23.73
2018-01-19T04:52:55.417Z,26.80
2018-01-19T04:55:23.898Z,22.33
2018-01-19T04:58:06.929Z,18.77
2018-01-19T05:00:36.941Z,23.40
2018-01-19T05:03:05.414Z,24.40
2018-01-19T05:05:34.535Z,24.90
2018-01-19T05:08:09.238Z,17.17
2018-01-19T05:10:37.622Z,21.77
2018-01-19T05:13:06.007Z,18.80
2018-01-19T05:15:34.480Z,25.00
2018-01-19T05:18:03.404Z,24.17
2018-01-19T05:20:32.474Z,15.63
2018-01-19T05:23:00.729Z,20.37
2018-01-19T05:25:29.082Z,15.77
2018-01-19T05:27:58.214Z,21.77
2018-01-19T05:30:28.332Z,23.07
2018-01-19T05:32:56.714Z,25.47
2018-01-19T05:35:31.232Z,25.30
2018-01-19T05:37:59.711Z,38.80
2018-01-19T05:40:28.192Z,18.80
2018-01-19T05:42:56.878Z,23.50
2018-01-19T05:45:25.670Z,30.57
2018-01-19T05:47:53.957Z,37.07
2018-01-19T05:50:22.426Z,41.17
2018-01-19T05:52:51.036Z,29.83
2018-01-19T05:55:34.653Z,40.87
2018-01-19T05:58:03.022Z,39.40
2018-01-19T06:00:38.699Z,29.37
2018-01-19T06:03:06.972Z,30.87
2018-01-19T06:05:48.513Z,45.80
2018-01-19T06:08:17.630Z,24.17
2018-01-19T06:10:46.054Z,35.10
2018-01-19T06:13:14.493Z,36.13
2018-01-19T06:15:42.900Z,47.43
2018-01-19T06:18:11.346Z,53.27
2018-01-19T06:20:39.835Z,35.90
2018-01-19T06:23:21.626Z,44.73
2018-01-19T06:25:51.227Z,36.97
2018-01-19T06:28:20.269Z,42.43
2018-01-19T06:30:49.275Z,46.03
2018-01-19T06:33:19.676Z,50.67
2018-01-19T06:35:49.599Z,65.10
2018-01-19T06:38:17.969Z,53.87
2018-01-19T06:40:46.436Z,56.40
2018-01-19T06:43:22.113Z,33.83
2018-01-19T06:45:51.914Z,62.17
2018-01-19T06:48:20.285Z,65.57
2018-01-19T06:50:48.732Z,37.50
2018-01-19T06:53:17.104Z,39.03
2018-01-19T06:55:46.076Z,53.90
2018-01-19T06:58:15.302Z,31.60
2018-01-19T07:00:44.436Z,31.53
2018-01-19T07:03:12.927Z,24.53
2018-01-19T07:05:56.214Z,23.07
2018-01-19T07:08:24.592Z,18.83
2018-01-19T07:10:53.206Z,16.10
2018-01-19T07:13:22.278Z,17.67
2018-01-19T07:15:50.753Z,17.77
2018-01-19T07:18:19.125Z,18.43
2018-01-19T07:20:47.542Z,18.67
2018-01-19T07:23:17.457Z,24.07
2018-01-19T07:25:45.790Z,28.03
2018-01-19T07:28:22.365Z,31.47
2018-01-19T07:30:50.847Z,24.97
2018-01-19T07:33:25.470Z,46.57
2018-01-19T07:35:53.886Z,34.67
2018-01-19T07:38:22.184Z,30.20
2018-01-19T07:40:50.713Z,30.93
2018-01-19T07:43:19.302Z,36.47
2018-01-19T07:45:48.700Z,44.17
2018-01-19T07:48:23.278Z,24.80
2018-01-19T07:50:52.423Z,25.77
2018-01-19T07:53:20.895Z,29.17
2018-01-19T07:55:49.184Z,23.30
2018-01-19T07:58:25.478Z,38.83
2018-01-19T08:00:53.968Z,31.03
2018-01-19T08:03:24.141Z,27.53
2018-01-19T08:05:52.617Z,30.77
2018-01-19T08:08:22.456Z,36.43
2018-01-19T08:10:50.834Z,72.80
2018-01-19T08:13:19.287Z,70.40
2018-01-19T08:15:47.771Z,51.73
2018-01-19T08:18:16.081Z,53.23
2018-01-19T08:20:44.524Z,44.80
2018-01-19T08:23:13.008Z,39.33
2018-01-19T08:25:41.423Z,34.50
2018-01-19T08:28:09.739Z,43.47
2018-01-19T08:30:38.825Z,37.70
2018-01-19T08:33:07.880Z,38.53
2018-01-19T08:35:36.231Z,51.37
2018-01-19T08:38:19.960Z,39.73
2018-01-19T08:40:48.859Z,52.00
2018-01-19T08:43:17.290Z,20.93
2018-01-19T08:45:48.482Z,36.20
2018-01-19T08:48:16.861Z,36.30
2018-01-19T08:50:57.865Z,37.50
2018-01-19T08:53:27.366Z,29.10
2018-01-19T08:55:55.820Z,21.47
2018-01-19T08:58:24.301Z,35.73
2018-01-19T09:00:52.828Z,16.83
2018-01-19T09:03:21.101Z,41.40
2018-01-19T09:05:49.539Z,26.40
2018-01-19T09:08:17.956Z,73.60
2018-01-19T09:10:46.359Z,39.57
2018-01-19T09:13:15.404Z,48.60
2018-01-19T09:15:51.962Z,59.50
2018-01-19T09:18:21.064Z,31.17
2018-01-19T09:20:50.127Z,41.20
2018-01-19T09:23:18.637Z,34.80
2018-01-19T09:25:47.124Z,33.23
2018-01-19T09:28:17.541Z,28.33
2018-01-19T09:30:46.187Z,30.57
2018-01-19T09:33:14.576Z,31.30
2018-01-19T09:35:44.063Z,40.80
2018-01-19T09:38:13.203Z,39.87
2018-01-19T09:43:13.192Z,34.90
2018-01-19T09:45:43.742Z,27.30
2018-01-19T09:48:12.058Z,34.53
2018-01-19T09:50:40.457Z,24.87
2018-01-19T09:53:09.213Z,39.27
2018-01-19T09:55:37.694Z,29.13
2018-01-19T09:58:06.023Z,32.73
2018-01-19T10:00:34.391Z,30.77
2018-01-19T10:03:02.755Z,30.00
2018-01-19T10:05:31.399Z,33.80
2018-01-19T10:07:59.897Z,24.50
2018-01-19T10:10:28.371Z,32.67
2018-01-19T10:12:56.857Z,32.47
2018-01-19T10:15:25.377Z,27.37
2018-01-19T10:17:54.328Z,34.37
2018-01-19T10:20:23.524Z,32.93
2018-01-19T10:22:51.939Z,26.13
2018-01-19T10:25:21.612Z,31.50
2018-01-19T10:27:50.462Z,24.07
2018-01-19T10:30:31.888Z,26.00
2018-01-19T10:33:13.690Z,26.07
2018-01-19T10:35:42.065Z,29.23
2018-01-19T10:38:10.539Z,31.40
2018-01-19T10:40:39.018Z,31.63
2018-01-19T10:43:07.728Z,30.50
2018-01-19T10:45:36.321Z,32.53
2018-01-19T10:48:04.872Z,26.97
2018-01-19T10:50:33.674Z,37.63
2018-01-19T10:53:02.139Z,23.80
2018-01-19T10:55:30.623Z,29.23
2018-01-19T10:58:00.218Z,28.87
2018-01-19T11:00:30.145Z,24.57
2018-01-19T11:02:58.452Z,27.70
2018-01-19T11:05:27.718Z,33.57
2018-01-19T11:07:56.518Z,27.43
2018-01-19T11:10:25.107Z,30.77
2018-01-19T11:12:53.556Z,25.77
2018-01-19T11:15:22.322Z,25.67
2018-01-19T11:17:52.583Z,35.97
2018-01-19T11:20:21.036Z,31.43
2018-01-19T11:22:50.157Z,28.73
2018-01-19T11:25:18.677Z,24.90
2018-01-19T11:27:47.270Z,21.47
2018-01-19T11:30:17.401Z,23.23
2018-01-19T11:32:45.985Z,23.87
2018-01-19T11:35:14.613Z,17.93
2018-01-19T11:37:43.294Z,17.03
2018-01-19T11:40:19.010Z,29.73
2018-01-19T11:42:48.182Z,25.37
2018-01-19T11:45:16.526Z,18.97
2018-01-19T11:47:45.048Z,26.87
2018-01-19T11:50:13.482Z,22.87
2018-01-19T11:52:42.007Z,25.13
2018-01-19T11:55:11.188Z,22.83
2018-01-19T11:57:53.386Z,24.43
2018-01-19T12:00:21.946Z,18.53
2018-01-19T12:02:51.582Z,21.60
2018-01-19T12:05:21.152Z,22.97
2018-01-19T12:07:49.526Z,24.40
2018-01-19T12:10:22.436Z,29.50
2018-01-19T12:12:51.021Z,28.33
2018-01-19T12:15:21.809Z,23.43
2018-01-19T12:17:50.210Z,30.73
2018-01-19T12:20:18.654Z,21.43
2018-01-19T12:22:47.070Z,28.13
2018-01-19T12:25:17.043Z,23.67
2018-01-19T12:27:47.327Z,27.20
2018-01-19T12:30:15.669Z,36.07
2018-01-19T12:32:45.864Z,21.93
2018-01-19T12:35:14.153Z,21.73
2018-01-19T12:37:42.522Z,30.10
2018-01-19T12:40:17.144Z,27.50
2018-01-19T12:42:45.614Z,37.33
2018-01-19T12:45:17.078Z,27.60
2018-01-19T12:47:45.558Z,26.37
2018-01-19T12:50:27.292Z,26.80
2018-01-19T12:52:56.433Z,26.87
2018-01-19T12:55:24.837Z,34.27
2018-01-19T12:57:54.024Z,40.33
2018-01-19T13:00:22.448Z,29.57
2018-01-19T13:02:50.888Z,25.73
2018-01-19T13:05:20.347Z,30.23
2018-01-19T13:07:53.805Z,26.83
2018-01-19T13:10:22.216Z,28.30
2018-01-19T13:12:51.336Z,30.83
2018-01-19T13:15:21.477Z,20.13
2018-01-19T13:17:49.808Z,25.53
2018-01-19T13:20:24.209Z,27.27
2018-01-19T13:22:52.756Z,25.07
2018-01-19T13:25:21.274Z,27.37
2018-01-19T13:27:50.748Z,25.63
2018-01-19T13:30:19.318Z,25.73
2018-01-19T13:32:47.808Z,23.27
2018-01-19T13:35:16.292Z,21.10
2018-01-19T13:37:44.605Z,26.27
2018-01-19T13:40:12.939Z,22.17
2018-01-19T13:42:41.290Z,26.27
2018-01-19T13:45:10.524Z,28.53
2018-01-19T13:47:39.113Z,27.33
2018-01-19T13:50:07.539Z,26.90
2018-01-19T13:52:36.653Z,31.03
2018-01-19T13:55:05.760Z,23.57
2018-01-19T13:57:34.243Z,31.30
2018-01-19T14:00:03.463Z,29.40
2018-01-19T14:02:34.040Z,30.70
2018-01-19T14:05:02.770Z,32.90
2018-01-19T14:07:31.205Z,28.80
2018-01-19T14:10:00.429Z,35.43
2018-01-19T14:12:29.547Z,28.03
2018-01-19T14:14:58.458Z,27.03
2018-01-19T14:17:31.106Z,32.23
2018-01-19T14:19:59.444Z,31.10
2018-01-19T14:22:29.433Z,33.63
2018-01-19T14:24:59.947Z,31.03
2018-01-19T14:27:28.449Z,30.80
2018-01-19T14:29:57.715Z,33.73
2018-01-19T14:32:26.300Z,30.70
2018-01-19T14:34:54.783Z,33.23
2018-01-19T14:37:23.126Z,33.17
2018-01-19T14:39:52.303Z,36.13
2018-01-19T14:42:20.597Z,38.20
2018-01-19T14:45:04.778Z,34.67
2018-01-19T14:47:33.466Z,39.73
2018-01-19T14:50:01.796Z,33.10
2018-01-19T14:52:30.986Z,36.17
2018-01-19T14:54:59.338Z,33.33
2018-01-19T14:57:27.687Z,35.17
2018-01-19T14:59:55.997Z,38.70
2018-01-19T15:02:24.488Z,33.60
2018-01-19T15:04:52.978Z,36.87
2018-01-19T15:07:21.307Z,32.57
2018-01-19T15:09:49.625Z,40.67
2018-01-19T15:12:18.070Z,29.63
2018-01-19T15:14:46.560Z,37.47
2018-01-19T15:17:14.999Z,37.40
2018-01-19T15:19:43.345Z,35.80
2018-01-19T15:22:11.814Z,42.77
2018-01-19T15:24:40.382Z,32.93
2018-01-19T15:27:08.795Z,44.27
2018-01-19T15:29:37.569Z,30.57
2018-01-19T15:32:06.844Z,32.63
2018-01-19T15:34:35.880Z,30.80
2018-01-19T15:37:06.924Z,36.67
2018-01-19T15:39:35.231Z,35.47
2018-01-19T15:42:04.447Z,32.77
2018-01-19T15:44:32.931Z,35.10
2018-01-19T15:47:02.331Z,34.73
2018-01-19T15:49:30.812Z,41.17
2018-01-19T15:51:59.304Z,42.27
2018-01-19T15:54:27.697Z,40.13
2018-01-19T15:56:56.099Z,38.70
2018-01-19T15:59:25.156Z,33.83
2018-01-19T16:01:53.724Z,36.87
2018-01-19T16:04:23.475Z,45.13
2018-01-19T16:06:53.353Z,38.93
2018-01-19T16:09:23.978Z,42.43
2018-01-19T16:11:52.980Z,40.00
2018-01-19T16:14:22.807Z,36.60
2018-01-19T16:16:51.581Z,40.87
2018-01-19T16:19:20.602Z,42.13
2018-01-19T16:21:56.737Z,63.73
2018-01-19T16:24:25.209Z,65.87
2018-01-19T16:26:53.531Z,46.37
2018-01-19T16:29:21.909Z,40.47
2018-01-19T16:31:51.777Z,35.57
2018-01-19T16:34:20.273Z,37.17
2018-01-19T16:36:48.739Z,47.83
2018-01-19T16:39:17.052Z,45.60
2018-01-19T16:41:45.397Z,40.30
2018-01-19T16:44:14.627Z,29.00
2018-01-19T16:46:43.697Z,35.87
2018-01-19T16:49:20.228Z,43.50
2018-01-19T16:51:58.568Z,36.73
2018-01-19T16:54:27.006Z,34.77
2018-01-19T16:56:56.053Z,38.07
2018-01-19T16:59:24.880Z,36.90
2018-01-19T17:01:53.318Z,36.07
2018-01-19T17:04:21.736Z,48.67
2018-01-19T17:06:50.166Z,39.23
2018-01-19T17:11:46.247Z,29.17
2018-01-19T17:14:14.622Z,31.70
2018-01-19T17:16:52.285Z,31.93
2018-01-19T17:19:20.664Z,30.93
2018-01-19T17:21:49.512Z,33.57
2018-01-19T17:24:18.583Z,37.43
2018-01-19T17:26:47.712Z,31.17
2018-01-19T17:29:16.232Z,35.43
2018-01-19T17:31:44.535Z,37.53
2018-01-19T17:34:12.909Z,43.13
2018-01-19T17:36:41.273Z,36.77
2018-01-19T17:39:12.658Z,41.53
2018-01-19T17:41:42.633Z,49.17
2018-01-19T17:44:11.285Z,51.87
2018-01-19T17:46:39.624Z,31.43
2018-01-19T17:49:08.073Z,34.93
2018-01-19T17:51:37.524Z,34.50
2018-01-19T17:54:13.891Z,29.67
2018-01-19T17:56:42.570Z,38.37
2018-01-19T17:59:12.063Z,32.27
2018-01-19T18:01:40.436Z,30.57
2018-01-19T18:04:08.914Z,34.20
2018-01-19T18:06:37.305Z,38.90
2018-01-19T18:09:06.055Z,32.60
2018-01-19T18:11:34.748Z,32.60
2018-01-19T18:14:03.091Z,25.80
2018-01-19T18:16:32.254Z,28.63
2018-01-19T18:19:01.380Z,27.63
2018-01-19T18:21:30.679Z,28.50
2018-01-19T18:23:59.169Z,25.37
2018-01-19T18:26:28.388Z,27.60
2018-01-19T18:28:56.764Z,28.00
2018-01-19T18:31:26.121Z,26.27
2018-01-19T18:33:55.297Z,24.50
2018-01-19T18:36:23.747Z,22.60
2018-01-19T18:38:52.735Z,24.57
2018-01-19T18:41:21.040Z,28.63
2018-01-19T18:43:49.528Z,22.53
2018-01-19T18:46:18.797Z,20.63
2018-01-19T18:48:49.074Z,24.60
2018-01-19T18:51:18.199Z,22.87
2018-01-19T18:53:46.601Z,21.10
2018-01-19T18:56:17.972Z,27.97
2018-01-19T18:58:47.075Z,24.90
2018-01-19T19:01:15.451Z,33.00
2018-01-19T19:03:43.793Z,21.87
2018-01-19T19:06:13.106Z,26.93
2018-01-19T19:08:41.574Z,23.80
2018-01-19T19:11:12.554Z,23.00
2018-01-19T19:13:40.930Z,24.87
2018-01-19T19:16:09.608Z,32.53
2018-01-19T19:18:37.905Z,31.53
2018-01-19T19:21:12.825Z,26.73
2018-01-19T19:23:41.855Z,20.57
2018-01-19T19:26:10.362Z,23.77
2018-01-19T19:28:38.956Z,23.43
2018-01-19T19:31:07.322Z,19.03
2018-01-19T19:33:35.801Z,23.47
2018-01-19T19:36:04.177Z,21.97
2018-01-19T19:38:32.668Z,26.47
2018-01-19T19:41:00.936Z,22.63
2018-01-19T19:43:29.387Z,21.20
2018-01-19T19:46:01.983Z,28.50
2018-01-19T19:48:30.885Z,22.50
2018-01-19T19:50:59.599Z,26.60
2018-01-19T19:53:28.048Z,30.13
2018-01-19T19:55:56.370Z,21.67
2018-01-19T19:58:25.118Z,29.83
2018-01-19T20:00:53.438Z,24.00
2018-01-19T20:03:36.098Z,20.20
2018-01-19T20:06:04.387Z,24.23
2018-01-19T20:08:32.757Z,15.77
2018-01-19T20:11:01.936Z,31.37
2018-01-19T20:13:31.343Z,27.67
2018-01-19T20:16:01.169Z,19.77
2018-01-19T20:18:29.547Z,28.07
2018-01-19T20:20:58.070Z,21.70
2018-01-19T20:23:30.605Z,32.93
2018-01-19T20:25:58.997Z,27.43
2018-01-19T20:28:27.330Z,33.50
2018-01-19T20:30:56.553Z,32.33
2018-01-19T20:33:28.251Z,24.30
2018-01-19T20:36:03.891Z,27.27
2018-01-19T20:38:33.410Z,29.13
2018-01-19T20:41:01.856Z,21.77
2018-01-19T20:43:31.002Z,24.87
2018-01-19T20:46:00.902Z,35.27
2018-01-19T20:48:34.602Z,24.27
2018-01-19T20:51:03.042Z,37.03
2018-01-19T20:53:31.369Z,26.30
2018-01-19T20:56:03.077Z,25.33
2018-01-19T20:58:32.289Z,29.63
2018-01-19T21:01:00.754Z,29.30
2018-01-19T21:03:29.349Z,34.33
2018-01-19T21:06:06.015Z,37.03
2018-01-19T21:08:34.501Z,27.53
2018-01-19T21:11:02.831Z,34.00
2018-01-19T21:13:31.495Z,34.77
2018-01-19T21:16:01.568Z,37.50
2018-01-19T21:18:30.053Z,34.63
2018-01-19T21:20:59.338Z,40.93
2018-01-19T21:23:27.732Z,34.23
2018-01-19T21:25:56.110Z,28.10
2018-01-19T21:28:25.346Z,32.20
2018-01-19T21:30:53.929Z,19.63
2018-01-19T21:33:22.334Z,19.13
2018-01-19T21:35:51.555Z,22.13
2018-01-19T21:38:19.910Z,19.67
2018-01-19T21:40:48.283Z,21.57
2018-01-19T21:43:18.420Z,22.80
2018-01-19T21:45:47.554Z,20.87
2018-01-19T21:48:23.949Z,20.57
2018-01-19T21:50:54.070Z,20.50
2018-01-19T21:53:25.613Z,28.30
2018-01-19T21:55:54.162Z,18.10
2018-01-19T21:58:22.584Z,21.27
2018-01-19T22:00:53.126Z,21.70
2018-01-19T22:03:29.976Z,14.10
2018-01-19T22:05:59.946Z,20.53
2018-01-19T22:08:29.095Z,18.03
2018-01-19T22:11:01.979Z,23.40
2018-01-19T22:13:31.095Z,20.40
2018-01-19T22:16:00.342Z,16.03
2018-01-19T22:18:28.844Z,24.80
2018-01-19T22:20:57.204Z,14.77
2018-01-19T22:23:25.607Z,21.50
2018-01-19T22:25:53.914Z,14.37
2018-01-19T22:28:23.151Z,18.10
2018-01-19T22:30:51.547Z,14.90
2018-01-19T22:33:19.937Z,15.70
2018-01-19T22:35:48.591Z,23.70
2018-01-19T22:38:17.031Z,24.80
2018-01-19T22:40:45.344Z,19.27
2018-01-19T22:43:15.100Z,20.97
2018-01-19T22:45:43.479Z,18.07
2018-01-19T22:48:11.951Z,14.87
2018-01-19T22:50:40.693Z,19.50
2018-01-19T22:53:09.916Z,20.20
2018-01-19T22:55:38.360Z,24.13
2018-01-19T22:58:13.822Z,19.20
2018-01-19T23:00:47.614Z,20.67
2018-01-19T23:03:16.079Z,23.87
2018-01-19T23:05:45.337Z,26.47
2018-01-19T23:08:13.695Z,26.73
2018-01-19T23:10:41.986Z,25.13
2018-01-19T23:13:11.210Z,22.03
2018-01-19T23:15:39.755Z,21.33
2018-01-19T23:18:22.235Z,25.17
2018-01-19T23:20:52.496Z,22.23
2018-01-19T23:23:20.914Z,25.47
2018-01-19T23:25:49.260Z,22.60
2018-01-19T23:28:17.647Z,25.17
2018-01-19T23:30:46.032Z,20.60
2018-01-19T23:33:14.335Z,22.53
2018-01-19T23:35:43.519Z,15.73
2018-01-19T23:38:11.948Z,23.13
2018-01-19T23:40:40.458Z,23.67
2018-01-19T23:43:08.917Z,14.57
2018-01-19T23:45:40.694Z,16.47
2018-01-19T23:48:09.150Z,13.40
2018-01-19T23:50:39.204Z,15.60
2018-01-19T23:53:22.471Z,13.20
2018-01-19T23:55:52.615Z,16.63
2018-01-19T23:58:21.132Z,19.30
